createdAt,value
2023-03-23T00:00:35.986Z,88.5
2023-03-23T00:03:02.176Z,89.1
2023-03-23T00:05:28.284Z,89.6
2023-03-23T00:07:54.394Z,90
2023-03-23T00:10:20.530Z,90.1
2023-03-23T00:12:46.619Z,90.7
2023-03-23T00:15:12.565Z,90.8
2023-03-23T00:17:38.656Z,90.8
2023-03-23T00:20:04.769Z,90
2023-03-23T00:22:30.952Z,89
2023-03-23T00:24:57.057Z,88.9
2023-03-23T00:27:23.099Z,89.6
2023-03-23T00:29:48.230Z,89.8
2023-03-23T00:32:14.439Z,90.7
2023-03-23T00:34:40.359Z,91.4
2023-03-23T00:37:06.440Z,91.4
2023-03-23T00:39:32.573Z,91.4
2023-03-23T00:41:58.790Z,92.2
2023-03-23T00:44:24.891Z,92
2023-03-23T00:46:50.939Z,91.5
2023-03-23T00:49:17.010Z,91.5
2023-03-23T00:51:43.022Z,92.3
2023-03-23T00:54:09.195Z,92.5
2023-03-23T00:56:35.363Z,92.7
2023-03-23T00:59:01.351Z,92.5
2023-03-23T01:01:26.503Z,92.9
2023-03-23T01:03:52.507Z,92.9
2023-03-23T01:06:18.733Z,93.1
2023-03-23T01:08:44.874Z,92.9
2023-03-23T01:11:10.916Z,92.9
2023-03-23T01:13:37.099Z,92.4
2023-03-23T01:16:03.034Z,92.1
2023-03-23T01:18:29.084Z,92.3
2023-03-23T01:20:55.203Z,91.8
2023-03-23T01:23:21.352Z,91.6
2023-03-23T01:25:47.521Z,91.8
2023-03-23T01:28:13.471Z,91.8
2023-03-23T01:30:39.663Z,91.2
2023-03-23T01:33:04.689Z,90.9
2023-03-23T01:35:30.888Z,90.3
2023-03-23T01:37:56.890Z,89.5
2023-03-23T01:40:22.965Z,88.9
2023-03-23T01:42:49.050Z,89.4
2023-03-23T01:45:15.287Z,89.3
2023-03-23T01:47:41.381Z,89.7
2023-03-23T01:50:07.497Z,90.3
2023-03-23T01:52:33.574Z,90.1
2023-03-23T01:54:59.655Z,90.4
2023-03-23T01:57:25.668Z,90.7
2023-03-23T02:02:17.972Z,91.3
2023-03-23T02:04:42.989Z,91.5
2023-03-23T02:07:09.196Z,91.9
2023-03-23T02:09:35.306Z,91.8
2023-03-23T02:12:01.318Z,91.9
2023-03-23T02:14:27.421Z,92
2023-03-23T02:16:53.482Z,91.8
2023-03-23T02:19:19.670Z,92.2
2023-03-23T02:21:45.612Z,92.5
2023-03-23T02:24:11.822Z,92
2023-03-23T02:26:37.932Z,91.7
2023-03-23T02:29:03.895Z,92
2023-03-23T02:31:30.001Z,91.8
2023-03-23T02:33:56.106Z,91.5
2023-03-23T02:36:21.206Z,91.3
2023-03-23T02:38:47.384Z,90.9
2023-03-23T02:41:13.426Z,90.9
2023-03-23T02:43:39.555Z,91
2023-03-23T02:46:05.594Z,91.5
2023-03-23T02:48:31.765Z,92.5
2023-03-23T02:50:57.893Z,93
2023-03-23T02:53:24.010Z,93.4
2023-03-23T02:55:49.959Z,93.3
2023-03-23T02:58:16.153Z,93.1
2023-03-23T03:00:42.222Z,92.7
2023-03-23T03:03:08.236Z,92.5
2023-03-23T03:05:34.482Z,92.8
2023-03-23T03:07:59.442Z,92.4
2023-03-23T03:10:25.665Z,92.1
2023-03-23T03:12:51.646Z,92.1
2023-03-23T03:15:17.801Z,91.9
2023-03-23T03:17:43.827Z,91.7
2023-03-23T03:20:09.928Z,91.4
2023-03-23T03:22:35.058Z,91.5
2023-03-23T03:25:01.136Z,91.3
2023-03-23T03:27:27.330Z,91.5
2023-03-23T03:29:53.442Z,91.5
2023-03-23T03:32:19.459Z,91.5
2023-03-23T03:34:45.658Z,91.5
2023-03-23T03:37:11.625Z,91.6
2023-03-23T03:39:37.714Z,91.6
2023-03-23T03:42:03.971Z,91.2
2023-03-23T03:44:30.032Z,91.2
2023-03-23T03:46:56.007Z,91.2
2023-03-23T03:49:22.260Z,91.7
2023-03-23T03:51:48.285Z,91.4
2023-03-23T03:54:13.335Z,91.3
2023-03-23T03:56:39.390Z,91.2
2023-03-23T03:59:05.491Z,91.4
2023-03-23T04:01:31.586Z,91.3
2023-03-23T04:03:57.776Z,91
2023-03-23T04:06:23.838Z,90.9
2023-03-23T04:08:49.987Z,90.5
2023-03-23T04:11:15.953Z,90
2023-03-23T04:13:42.164Z,90.3
2023-03-23T04:16:08.181Z,90.9
2023-03-23T04:18:34.333Z,90.9
2023-03-23T04:21:00.507Z,91
2023-03-23T04:23:26.440Z,90.7
2023-03-23T04:25:51.610Z,90.1
2023-03-23T04:28:17.658Z,90
2023-03-23T04:30:43.746Z,90.6
2023-03-23T04:33:09.999Z,90.5
2023-03-23T04:35:36.049Z,90.3
2023-03-23T04:38:02.107Z,90.7
2023-03-23T04:40:28.296Z,90.4
2023-03-23T04:42:54.384Z,90.7
2023-03-23T04:45:20.327Z,90.8
2023-03-23T04:47:46.550Z,90.5
2023-03-23T04:50:12.657Z,90.8
2023-03-23T04:52:38.604Z,91
2023-03-23T04:55:04.768Z,91.4
2023-03-23T04:57:29.948Z,92
2023-03-23T04:59:56.008Z,92
2023-03-23T05:02:22.009Z,92.5
2023-03-23T05:04:48.264Z,93
2023-03-23T05:07:14.184Z,93.1
2023-03-23T05:09:40.310Z,93.6
2023-03-23T05:12:06.491Z,93.8
2023-03-23T05:14:32.564Z,93.8
2023-03-23T05:16:58.596Z,93.9
2023-03-23T05:19:24.782Z,93.2
2023-03-23T05:21:50.908Z,92
2023-03-23T05:24:16.860Z,92.3
2023-03-23T05:26:42.954Z,92.5
2023-03-23T05:29:08.219Z,92.5
2023-03-23T05:31:34.225Z,92.5
2023-03-23T05:34:00.372Z,92.8
2023-03-23T05:36:26.496Z,93.1
2023-03-23T05:38:52.456Z,92.9
2023-03-23T05:41:18.542Z,92.3
2023-03-23T05:43:44.693Z,91.6
2023-03-23T05:46:10.820Z,91.4
2023-03-23T05:48:37.018Z,91.7
2023-03-23T05:51:03.006Z,91.6
2023-03-23T05:53:29.136Z,91.7
2023-03-23T05:55:55.253Z,91.8
2023-03-23T05:58:21.204Z,91.5
2023-03-23T06:00:46.511Z,91.8
2023-03-23T06:03:12.498Z,92.2
2023-03-23T06:05:38.663Z,92.5
2023-03-23T06:08:04.710Z,92.6
2023-03-23T06:10:30.781Z,93
2023-03-23T06:12:56.845Z,93
2023-03-23T06:15:23.126Z,92.7
2023-03-23T06:17:49.209Z,92.3
2023-03-23T06:20:15.226Z,92.2
2023-03-23T06:22:41.419Z,92.4
2023-03-23T06:25:07.484Z,91.9
2023-03-23T06:27:33.546Z,91.8
2023-03-23T06:29:59.477Z,91.4
2023-03-23T06:32:24.682Z,90.7
2023-03-23T06:34:50.908Z,90.1
2023-03-23T06:37:16.929Z,89.6
2023-03-23T06:39:43.082Z,89.5
2023-03-23T06:42:09.110Z,88.9
2023-03-23T06:44:35.210Z,90.3
2023-03-23T06:47:01.331Z,90.5
2023-03-23T06:49:27.344Z,90.3
2023-03-23T06:51:53.520Z,90
2023-03-23T06:54:19.619Z,90.8
2023-03-23T06:56:45.681Z,91.3
2023-03-23T06:59:11.786Z,91.6
2023-03-23T07:01:37.928Z,91.7
2023-03-23T07:04:02.997Z,92
2023-03-23T07:06:29.119Z,92.6
2023-03-23T07:08:55.209Z,92.5
2023-03-23T07:11:21.327Z,92.3
2023-03-23T07:13:47.232Z,92.5
2023-03-23T07:16:13.514Z,91.5
2023-03-23T07:21:05.732Z,89.8
2023-03-23T07:25:57.809Z,89
2023-03-23T07:28:23.810Z,89
2023-03-23T07:30:50.133Z,88.5
2023-03-23T07:33:16.166Z,89
2023-03-23T07:35:41.247Z,89
2023-03-23T07:38:07.376Z,89.4
2023-03-23T07:40:33.299Z,89.4
2023-03-23T07:42:59.520Z,89.5
2023-03-23T07:45:25.692Z,90.1
2023-03-23T07:47:51.711Z,90.3
2023-03-23T07:50:17.691Z,91
2023-03-23T07:52:43.780Z,90.9
2023-03-23T07:55:09.865Z,90.4
2023-03-23T07:57:35.958Z,91.3
2023-03-23T08:00:02.054Z,91.3
2023-03-23T08:02:28.179Z,91.3
2023-03-23T08:04:54.314Z,91.1
2023-03-23T08:07:19.362Z,90
2023-03-23T08:09:45.494Z,89.2
2023-03-23T08:12:11.730Z,88.8
2023-03-23T08:14:37.726Z,87
2023-03-23T08:17:03.879Z,74.1
2023-03-23T08:19:29.894Z,75.5
2023-03-23T08:24:22.201Z,75
2023-03-23T08:26:48.251Z,70.5
2023-03-23T08:29:14.317Z,67.8
2023-03-23T08:31:40.344Z,68
2023-03-23T08:34:06.560Z,66
2023-03-23T08:36:32.666Z,65
2023-03-23T08:38:57.790Z,64.1
2023-03-23T08:41:23.829Z,63.9
2023-03-23T08:43:49.907Z,63.9
2023-03-23T08:46:15.890Z,64
2023-03-23T08:48:42.021Z,64.2
2023-03-23T08:51:08.209Z,64.2
2023-03-23T08:53:34.284Z,64
2023-03-23T08:58:26.526Z,63.8
2023-03-23T09:00:52.507Z,64
2023-03-23T09:03:18.721Z,64.7
2023-03-23T09:05:44.665Z,65
2023-03-23T09:08:10.742Z,65.1
2023-03-23T09:10:35.857Z,65.7
2023-03-23T09:13:01.978Z,65.9
2023-03-23T09:15:28.131Z,66
2023-03-23T09:17:54.283Z,66
2023-03-23T09:20:20.244Z,66.2
2023-03-23T09:22:46.412Z,65.6
2023-03-23T09:25:12.482Z,65.6
2023-03-23T09:27:38.539Z,65.9
2023-03-23T09:30:04.641Z,66.1
2023-03-23T09:32:30.809Z,65.6
2023-03-23T09:34:56.847Z,65.7
2023-03-23T09:37:23.037Z,65.4
2023-03-23T09:39:49.011Z,65.5
2023-03-23T09:42:14.320Z,66.3
2023-03-23T09:44:40.221Z,65.6
2023-03-23T09:47:06.314Z,64.9
2023-03-23T09:51:58.498Z,65.6
2023-03-23T09:54:24.679Z,65.1
2023-03-23T09:56:50.828Z,65.7
2023-03-23T09:59:16.931Z,66.5
2023-03-23T10:01:43.050Z,65.9
2023-03-23T10:04:08.996Z,66.2
2023-03-23T10:06:35.161Z,66.4
2023-03-23T10:09:01.182Z,66
2023-03-23T10:11:27.317Z,66.1
2023-03-23T10:13:52.565Z,65.6
2023-03-23T10:16:18.481Z,65.4
2023-03-23T10:18:44.627Z,65.9
2023-03-23T10:21:10.690Z,65
2023-03-23T10:23:36.832Z,65
2023-03-23T10:26:02.884Z,64.2
2023-03-23T10:28:29.100Z,64.1
2023-03-23T10:30:55.101Z,64.4
2023-03-23T10:33:21.181Z,63.4
2023-03-23T10:35:47.253Z,64.3
2023-03-23T10:38:13.505Z,64.2
2023-03-23T10:40:39.650Z,64
2023-03-23T10:43:05.633Z,64.2
2023-03-23T10:45:30.628Z,63.7
2023-03-23T10:47:56.726Z,63.5
2023-03-23T10:50:22.815Z,64
2023-03-23T10:52:48.914Z,63.5
2023-03-23T10:55:15.085Z,63.9
2023-03-23T10:57:41.232Z,63.7
2023-03-23T11:00:07.390Z,64.3
2023-03-23T11:02:33.299Z,64.8
2023-03-23T11:04:59.417Z,64.7
2023-03-23T11:07:25.638Z,65.4
2023-03-23T11:09:51.586Z,64.3
2023-03-23T11:12:17.681Z,64.3
2023-03-23T11:14:43.853Z,64.5
2023-03-23T11:17:08.898Z,64.1
2023-03-23T11:19:34.978Z,64.1
2023-03-23T11:22:01.252Z,64.5
2023-03-23T11:24:27.332Z,63.5
2023-03-23T11:26:53.331Z,63.9
2023-03-23T11:29:19.442Z,64.2
2023-03-23T11:31:44.474Z,64.2
2023-03-23T11:34:10.704Z,64.9
2023-03-23T11:36:36.711Z,64.1
2023-03-23T11:39:02.764Z,65.9
2023-03-23T11:41:29.050Z,66.8
2023-03-23T11:43:55.050Z,67.6
2023-03-23T11:46:21.152Z,67.2
2023-03-23T11:48:47.288Z,67.4
2023-03-23T11:51:13.261Z,67
2023-03-23T11:53:39.322Z,68.1
2023-03-23T11:56:05.428Z,66.8
2023-03-23T11:58:31.652Z,66.6
2023-03-23T12:00:57.763Z,67.2
2023-03-23T12:03:22.896Z,66.2
2023-03-23T12:05:48.978Z,66.3
2023-03-23T12:08:15.132Z,65.3
2023-03-23T12:10:41.013Z,64.3
2023-03-23T12:13:07.106Z,64.1
2023-03-23T12:15:33.520Z,63.6
2023-03-23T12:17:59.492Z,63.7
2023-03-23T12:20:25.534Z,63
2023-03-23T12:22:51.476Z,63.3
2023-03-23T12:25:17.624Z,62.4
2023-03-23T12:27:43.670Z,62.5
2023-03-23T12:30:09.912Z,61.7
2023-03-23T12:32:35.855Z,61.1
2023-03-23T12:35:01.193Z,62.1
2023-03-23T12:37:27.289Z,61.6
2023-03-23T12:39:53.165Z,62.5
2023-03-23T12:42:19.337Z,63.8
2023-03-23T12:44:45.523Z,63.4
2023-03-23T12:47:11.466Z,63.3
2023-03-23T12:49:37.645Z,63.2
2023-03-23T12:52:03.649Z,62.5
2023-03-23T12:54:29.733Z,63.1
2023-03-23T12:56:55.824Z,62.9
2023-03-23T12:59:21.918Z,63
2023-03-23T13:01:48.177Z,62.6
2023-03-23T13:04:14.262Z,63.2
2023-03-23T13:06:39.357Z,62.1
2023-03-23T13:09:05.391Z,61.8
2023-03-23T13:11:31.474Z,61.8
2023-03-23T13:13:57.685Z,62.2
2023-03-23T13:16:23.603Z,62.1
2023-03-23T13:18:49.830Z,63.5
2023-03-23T13:21:15.794Z,64.5
2023-03-23T13:23:41.902Z,64.9
2023-03-23T13:26:08.084Z,65
2023-03-23T13:31:00.349Z,65.1
2023-03-23T13:33:26.415Z,64.8
2023-03-23T13:35:53.615Z,62.9
2023-03-23T13:38:17.687Z,64.4
2023-03-23T13:40:43.580Z,65
2023-03-23T13:43:09.749Z,64.9
2023-03-23T13:45:35.996Z,64.5
2023-03-23T13:48:02.109Z,66.1
2023-03-23T13:50:28.241Z,66.6
2023-03-23T13:52:54.265Z,66.9
2023-03-23T13:55:20.362Z,68
2023-03-23T13:57:46.259Z,68.4
2023-03-23T14:00:12.471Z,68.8
2023-03-23T14:02:38.632Z,68.2
2023-03-23T14:05:04.565Z,66.5
2023-03-23T14:07:30.810Z,68.8
2023-03-23T14:09:55.750Z,70.7
2023-03-23T14:12:21.997Z,65.6
2023-03-23T14:14:48.059Z,65.6
2023-03-23T14:17:14.091Z,65.1
2023-03-23T14:19:40.273Z,67.2
2023-03-23T14:22:06.352Z,70.1
2023-03-23T14:24:32.450Z,70.5
2023-03-23T14:29:24.508Z,71.9
2023-03-23T14:31:50.597Z,72.1
2023-03-23T14:34:16.802Z,72.3
2023-03-23T14:36:42.960Z,71.3
2023-03-23T14:39:09.021Z,71.4
2023-03-23T14:41:34.103Z,70
2023-03-23T14:44:00.151Z,66.1
2023-03-23T14:46:26.359Z,65.1
2023-03-23T14:48:52.379Z,61.5
2023-03-23T14:51:18.440Z,59.9
2023-03-23T14:53:44.619Z,60.1
2023-03-23T14:56:10.541Z,59.6
2023-03-23T14:58:36.656Z,58.9
2023-03-23T15:01:02.964Z,59.6
2023-03-23T15:03:28.990Z,59
2023-03-23T15:05:55.055Z,59.4
2023-03-23T15:08:21.021Z,58.9
2023-03-23T15:10:47.270Z,59.3
2023-03-23T15:13:12.336Z,58.4
2023-03-23T15:15:38.334Z,57.9
2023-03-23T15:18:04.437Z,57.8
2023-03-23T15:20:30.764Z,58
2023-03-23T15:22:56.740Z,57.5
2023-03-23T15:25:22.724Z,57.8
2023-03-23T15:27:49.007Z,57.6
2023-03-23T15:30:15.018Z,58.3
2023-03-23T15:32:41.006Z,57.6
2023-03-23T15:35:07.106Z,57.8
2023-03-23T15:37:33.369Z,58.1
2023-03-23T15:39:59.316Z,57.8
2023-03-23T15:42:25.383Z,58.4
2023-03-23T15:44:50.508Z,58.5
2023-03-23T15:47:16.606Z,57.9
2023-03-23T15:49:42.841Z,57.9
2023-03-23T15:52:08.971Z,57.6
2023-03-23T15:57:01.139Z,57.8
2023-03-23T15:59:27.200Z,57.6
2023-03-23T16:01:53.384Z,57.6
2023-03-23T16:04:32.656Z,57.8
2023-03-23T16:06:45.535Z,58.1
2023-03-23T16:09:11.604Z,58.8
2023-03-23T16:11:37.700Z,58.5
2023-03-23T16:14:03.807Z,58.2
2023-03-23T16:16:28.776Z,58.4
2023-03-23T16:21:21.023Z,58.3
2023-03-23T16:23:47.147Z,58.8
2023-03-23T16:26:13.309Z,58.3
2023-03-23T16:28:39.315Z,58.6
2023-03-23T16:31:05.340Z,58.6
2023-03-23T16:33:31.421Z,58.8
2023-03-23T16:35:57.670Z,59.3
2023-03-23T16:38:23.753Z,59.7
2023-03-23T16:40:49.818Z,59.4
2023-03-23T16:43:15.807Z,59.5
2023-03-23T16:45:42.035Z,59
2023-03-23T16:48:07.165Z,59.5
2023-03-23T16:50:33.158Z,59.2
2023-03-23T16:52:59.292Z,59.5
2023-03-23T16:55:25.298Z,59.8
2023-03-23T16:57:51.377Z,60.3
2023-03-23T17:00:17.696Z,60.2
2023-03-23T17:02:43.660Z,60.6
2023-03-23T17:05:09.801Z,60.8
2023-03-23T17:07:35.932Z,61.8
2023-03-23T17:10:01.972Z,62.6
2023-03-23T17:12:28.019Z,62.3
2023-03-23T17:14:54.240Z,61.7
2023-03-23T17:17:20.280Z,63.1
2023-03-23T17:19:45.396Z,62.1
2023-03-23T17:22:11.474Z,62.5
2023-03-23T17:24:37.431Z,62.9
2023-03-23T17:27:03.717Z,63.4
2023-03-23T17:29:29.629Z,63
2023-03-23T17:31:55.911Z,62.8
2023-03-23T17:34:21.992Z,62.7
2023-03-23T17:36:48.103Z,62.8
2023-03-23T17:39:14.132Z,63.5
2023-03-23T17:41:40.209Z,63.1
2023-03-23T17:44:06.350Z,64.4
2023-03-23T17:46:32.358Z,66.7
2023-03-23T17:48:58.394Z,65.9
2023-03-23T17:51:23.509Z,66.1
2023-03-23T17:53:49.729Z,65.1
2023-03-23T17:56:15.858Z,65.5
2023-03-23T17:58:41.922Z,65.5
2023-03-23T18:01:08.024Z,65.8
2023-03-23T18:03:34.179Z,66.6
2023-03-23T18:06:00.105Z,67.8
2023-03-23T18:08:26.255Z,69.3
2023-03-23T18:10:52.358Z,68.7
2023-03-23T18:13:18.547Z,68.8
2023-03-23T18:15:44.613Z,67.3
2023-03-23T18:18:10.730Z,66.9
2023-03-23T18:20:36.720Z,66.8
2023-03-23T18:23:01.771Z,66.7
2023-03-23T18:27:54.110Z,65.5
2023-03-23T18:30:20.266Z,65.4
2023-03-23T18:32:46.309Z,65.7
2023-03-23T18:35:12.305Z,65.1
2023-03-23T18:37:38.511Z,64.3
2023-03-23T18:40:04.436Z,64.4
2023-03-23T18:42:30.645Z,64.6
2023-03-23T18:44:56.802Z,65.2
2023-03-23T18:47:22.865Z,65
2023-03-23T18:49:48.954Z,65.6
2023-03-23T18:52:15.111Z,65.5
2023-03-23T18:54:40.249Z,65.3
2023-03-23T18:57:06.292Z,65.8
2023-03-23T18:59:32.363Z,66.6
2023-03-23T19:01:58.473Z,66.4
2023-03-23T19:04:24.610Z,66.3
2023-03-23T19:06:50.703Z,67.3
2023-03-23T19:09:16.752Z,69.5
2023-03-23T19:11:42.853Z,70.3
2023-03-23T19:14:08.963Z,68.7
2023-03-23T19:16:35.160Z,69
2023-03-23T19:19:01.195Z,69.3
2023-03-23T19:21:27.262Z,66.9
2023-03-23T19:23:53.370Z,66.2
2023-03-23T19:26:18.481Z,65.9
2023-03-23T19:28:44.532Z,66.5
2023-03-23T19:31:10.616Z,66
2023-03-23T19:33:36.759Z,65.6
2023-03-23T19:36:02.780Z,65.4
2023-03-23T19:38:28.954Z,64.9
2023-03-23T19:40:54.979Z,65
2023-03-23T19:43:21.033Z,65.1
2023-03-23T19:45:46.159Z,64.9
2023-03-23T19:48:12.289Z,64.8
2023-03-23T19:50:38.370Z,64.7
2023-03-23T19:53:04.466Z,65
2023-03-23T19:55:30.601Z,65
2023-03-23T19:57:56.715Z,65.1
2023-03-23T20:00:22.799Z,64.9
2023-03-23T20:02:48.865Z,65
2023-03-23T20:05:14.879Z,65
2023-03-23T20:07:41.043Z,65.3
2023-03-23T20:10:07.101Z,65.4
2023-03-23T20:12:33.223Z,65.4
2023-03-23T20:14:59.343Z,65.4
2023-03-23T20:17:24.474Z,66.2
2023-03-23T20:19:50.524Z,66.3
2023-03-23T20:22:16.636Z,66.4
2023-03-23T20:24:42.630Z,66.6
2023-03-23T20:27:08.821Z,66.3
2023-03-23T20:29:34.975Z,66.7
2023-03-23T20:32:00.868Z,66.6
2023-03-23T20:34:27.144Z,67.8
2023-03-23T20:36:53.270Z,67.5
2023-03-23T20:39:19.346Z,68.4
2023-03-23T20:41:45.429Z,69.1
2023-03-23T20:44:11.567Z,69.5
2023-03-23T20:46:37.605Z,69.9
2023-03-23T20:49:02.732Z,70.7
2023-03-23T20:51:28.808Z,70
2023-03-23T20:53:54.897Z,69.1
2023-03-23T20:56:20.838Z,68.4
2023-03-23T20:58:47.042Z,68.5
2023-03-23T21:01:13.157Z,71.1
2023-03-23T21:03:39.296Z,71.4
2023-03-23T21:06:05.365Z,72.8
2023-03-23T21:08:31.445Z,74.1
2023-03-23T21:10:57.581Z,74.7
2023-03-23T21:13:23.762Z,74.4
2023-03-23T21:15:49.795Z,74.4
2023-03-23T21:18:15.865Z,74.6
2023-03-23T21:20:40.955Z,74.7
2023-03-23T21:23:06.944Z,75
2023-03-23T21:25:33.155Z,75.3
2023-03-23T21:27:59.186Z,74.8
2023-03-23T21:30:25.251Z,75.5
2023-03-23T21:32:51.446Z,76.5
2023-03-23T21:35:17.490Z,77
2023-03-23T21:37:43.621Z,77.6
2023-03-23T21:40:09.684Z,78.5
2023-03-23T21:42:35.833Z,78.4
2023-03-23T21:45:01.917Z,79.3
2023-03-23T21:47:27.851Z,79.5
2023-03-23T21:49:53.926Z,80.2
2023-03-23T21:52:19.202Z,80.2
2023-03-23T21:54:45.247Z,80.9
2023-03-23T21:57:11.372Z,81.3
2023-03-23T21:59:37.335Z,81.7
2023-03-23T22:02:03.593Z,82.1
2023-03-23T22:04:29.666Z,82
2023-03-23T22:06:55.775Z,82.4
2023-03-23T22:09:21.787Z,82.5
2023-03-23T22:11:47.789Z,82.8
2023-03-23T22:14:13.970Z,83.3
2023-03-23T22:16:40.072Z,83.2
2023-03-23T22:19:06.074Z,83.5
2023-03-23T22:21:32.180Z,83.7
2023-03-23T22:23:57.464Z,83.9
2023-03-23T22:26:23.531Z,83.8
2023-03-23T22:28:49.573Z,84.2
2023-03-23T22:31:15.571Z,84.4
2023-03-23T22:33:41.779Z,84.4
2023-03-23T22:36:07.785Z,84.1
2023-03-23T22:38:33.977Z,84.2
2023-03-23T22:40:59.971Z,84.1
2023-03-23T22:43:26.076Z,83.6
2023-03-23T22:45:52.295Z,83.2
2023-03-23T22:48:18.378Z,82.2
2023-03-23T22:50:44.476Z,82
2023-03-23T22:53:10.450Z,82.4
2023-03-23T22:55:35.636Z,82.2
2023-03-23T22:58:01.788Z,83.4
2023-03-23T23:00:27.859Z,84.2
2023-03-23T23:02:53.917Z,84.3
2023-03-23T23:05:19.951Z,83.8
2023-03-23T23:07:46.069Z,84
2023-03-23T23:10:12.131Z,84.2
2023-03-23T23:12:38.337Z,83.6
2023-03-23T23:15:04.464Z,83.8
2023-03-23T23:17:30.530Z,84.4
2023-03-23T23:19:56.582Z,85.3
2023-03-23T23:22:22.741Z,85.7
2023-03-23T23:24:48.868Z,85
2023-03-23T23:29:39.936Z,85.6
2023-03-23T23:32:06.020Z,84.7
2023-03-23T23:34:32.248Z,84.3
2023-03-23T23:36:58.333Z,84.3
2023-03-23T23:39:24.428Z,83.4
2023-03-23T23:41:50.486Z,84.5
2023-03-23T23:44:16.531Z,85.1
2023-03-23T23:46:42.675Z,86.2
2023-03-23T23:49:08.748Z,86.6
2023-03-23T23:51:34.827Z,86.2
2023-03-23T23:54:01.026Z,86
2023-03-23T23:56:27.051Z,86.9
2023-03-23T23:58:52.171Z,87.1
